Time;durP1;ratioP1;P1;durP2;ratioP2;P2;SDS_P1;SDS_P2;PMS_P1;PMS_P2;Temp;Humidity;BMP_temperature;BMP_pressure;BME280_temperature;BME280_humidity;BME280_pressure;Samples;Min_cycle;Max_cycle;Signal;HPM_P1;HPM_P2
2021/03/18 00:00:22;;;;;;;13.38;8.07;;;;;;;;;;5053650;28;20071;-69
2021/03/18 00:02:48;;;;;;;15.43;7.68;;;;;;;;;;5053878;28;20027;-70
2021/03/18 00:05:15;;;;;;;15.25;8.55;;;;;;;;;;5053645;28;20424;-69
2021/03/18 00:07:41;;;;;;;13.32;7.65;;;;;;;;;;5051962;28;20032;-69
2021/03/18 00:10:07;;;;;;;13.55;7.38;;;;;;;;;;5053527;28;20029;-69
2021/03/18 00:12:34;;;;;;;21.38;6.63;;;;;;;;;;5052196;28;20071;-70
2021/03/18 00:15:03;;;;;;;10.38;5.70;;;;;;;;;;5051807;28;20025;-70
2021/03/18 00:17:29;;;;;;;13.15;7.85;;;;;;;;;;5052546;28;20040;-69
2021/03/18 00:19:56;;;;;;;18.40;8.63;;;;;;;;;;5053644;28;20032;-69
2021/03/18 00:22:22;;;;;;;15.23;8.38;;;;;;;;;;5053383;28;20036;-69
2021/03/18 00:24:48;;;;;;;16.40;7.40;;;;;;;;;;5053622;28;20021;-69
2021/03/18 00:27:15;;;;;;;14.25;5.95;;;;;;;;;;5052914;28;20025;-69
2021/03/18 00:29:41;;;;;;;13.45;6.60;;;;;;;;;;5053230;28;20032;-70
2021/03/18 00:32:08;;;;;;;8.65;5.05;;;;;;;;;;5053061;28;20053;-70
2021/03/18 00:34:34;;;;;;;10.55;6.22;;;;;;;;;;5052692;28;20017;-70
2021/03/18 00:37:01;;;;;;;11.70;6.25;;;;;;;;;;5053174;28;20053;-70
2021/03/18 00:39:27;;;;;;;12.57;6.43;;;;;;;;;;5053101;28;20021;-70
2021/03/18 00:41:53;;;;;;;12.63;7.20;;;;;;;;;;5052624;28;20375;-69
2021/03/18 00:44:20;;;;;;;14.50;7.20;;;;;;;;;;5053194;28;20059;-70
2021/03/18 00:46:46;;;;;;;22.38;9.48;;;;;;;;;;5053085;28;20516;-69
2021/03/18 00:49:12;;;;;;;18.60;9.52;;;;;;;;;;5052763;28;20105;-70
2021/03/18 00:51:38;;;;;;;15.90;8.35;;;;;;;;;;5051517;28;20063;-70
2021/03/18 00:54:05;;;;;;;15.90;8.48;;;;;;;;;;5052760;28;20044;-70
2021/03/18 00:56:31;;;;;;;15.40;8.65;;;;;;;;;;5052454;28;20385;-70
2021/03/18 00:58:57;;;;;;;20.48;8.57;;;;;;;;;;5052974;28;20028;-69
2021/03/18 01:01:25;;;;;;;12.40;6.93;;;;;;;;;;5052664;28;20021;-69
2021/03/18 01:03:51;;;;;;;16.33;8.13;;;;;;;;;;5052770;28;20505;-70
2021/03/18 01:06:22;;;;;;;16.33;7.35;;;;;;;;;;5052704;28;20027;-69
2021/03/18 01:08:49;;;;;;;16.90;8.30;;;;;;;;;;5051268;28;20043;-70
2021/03/18 01:11:17;;;;;;;13.73;7.28;;;;;;;;;;5052160;28;20045;-70
2021/03/18 01:13:47;;;;;;;13.48;7.43;;;;;;;;;;5052355;28;20418;-69
2021/03/18 01:16:22;;;;;;;11.38;6.20;;;;;;;;;;5052449;28;20083;-69
2021/03/18 01:18:50;;;;;;;13.52;6.75;;;;;;;;;;5052307;28;20025;-70
2021/03/18 01:21:17;;;;;;;13.40;6.93;;;;;;;;;;5052447;28;20031;-69
2021/03/18 01:23:43;;;;;;;12.63;5.93;;;;;;;;;;5052232;28;20017;-69
2021/03/18 01:26:10;;;;;;;15.50;6.70;;;;;;;;;;5052537;28;20025;-69
2021/03/18 01:28:37;;;;;;;14.63;7.20;;;;;;;;;;5052065;28;20033;-70
2021/03/18 01:31:05;;;;;;;12.43;6.93;;;;;;;;;;5051723;28;20108;-70
2021/03/18 01:33:31;;;;;;;15.80;7.75;;;;;;;;;;5052126;28;20037;-70
2021/03/18 01:36:00;;;;;;;14.55;6.43;;;;;;;;;;5052238;28;20547;-70
2021/03/18 01:38:26;;;;;;;10.60;5.57;;;;;;;;;;5051866;28;20039;-70
2021/03/18 01:40:53;;;;;;;11.68;6.00;;;;;;;;;;5050862;28;20025;-70
2021/03/18 01:43:19;;;;;;;12.82;5.85;;;;;;;;;;5052469;28;20032;-69
2021/03/18 01:45:45;;;;;;;11.27;5.53;;;;;;;;;;5051920;28;20029;-69
2021/03/18 01:48:11;;;;;;;11.15;6.38;;;;;;;;;;5052210;28;20365;-70
2021/03/18 01:50:38;;;;;;;11.52;6.43;;;;;;;;;;5052435;28;20496;-70
2021/03/18 01:53:05;;;;;;;9.70;4.95;;;;;;;;;;5051602;28;20037;-70
2021/03/18 01:55:33;;;;;;;14.07;6.57;;;;;;;;;;5052164;28;20071;-70
2021/03/18 01:58:00;;;;;;;11.57;6.93;;;;;;;;;;5052022;28;20580;-70
2021/03/18 02:00:27;;;;;;;10.00;5.80;;;;;;;;;;5051503;28;20115;-70
2021/03/18 02:02:54;;;;;;;11.32;6.38;;;;;;;;;;5052122;28;20032;-70
2021/03/18 02:05:20;;;;;;;15.60;6.57;;;;;;;;;;5050910;28;20366;-70
2021/03/18 02:07:49;;;;;;;10.43;6.28;;;;;;;;;;5051572;28;20528;-70
2021/03/18 02:10:15;;;;;;;10.00;5.70;;;;;;;;;;5051820;28;20017;-70
2021/03/18 02:12:41;;;;;;;14.10;6.45;;;;;;;;;;5051407;28;20036;-70
2021/03/18 02:15:08;;;;;;;9.80;6.35;;;;;;;;;;5050620;28;20029;-70
2021/03/18 02:17:41;;;;;;;13.35;7.40;;;;;;;;;;5051760;28;20021;-70
2021/03/18 02:20:30;;;;;;;13.02;7.10;;;;;;;;;;5051441;28;20032;-70
2021/03/18 02:23:15;;;;;;;12.95;7.22;;;;;;;;;;5051968;28;20017;-70
2021/03/18 02:25:56;;;;;;;16.63;7.22;;;;;;;;;;5051946;28;20025;-70
2021/03/18 02:28:47;;;;;;;12.45;7.22;;;;;;;;;;5051448;28;20032;-70
2021/03/18 02:31:18;;;;;;;13.40;7.50;;;;;;;;;;5051604;28;20040;-70
2021/03/18 02:34:03;;;;;;;11.80;7.05;;;;;;;;;;5050092;28;20029;-70
2021/03/18 02:36:37;;;;;;;15.18;7.68;;;;;;;;;;5051707;28;20465;-71
2021/03/18 02:39:05;;;;;;;15.18;8.20;;;;;;;;;;5051923;28;20071;-70
2021/03/18 02:41:34;;;;;;;13.35;7.60;;;;;;;;;;5053703;28;20469;-70
2021/03/18 02:44:00;;;;;;;12.85;8.05;;;;;;;;;;5055450;28;20071;-70
2021/03/18 02:46:27;;;;;;;18.30;8.27;;;;;;;;;;5055372;28;20029;-70
2021/03/18 02:48:56;;;;;;;15.57;8.40;;;;;;;;;;5055110;28;20039;-71
2021/03/18 02:51:24;;;;;;;18.10;9.48;;;;;;;;;;5055163;28;20453;-70
2021/03/18 02:53:50;;;;;;;14.60;9.57;;;;;;;;;;5054983;28;20040;-70
2021/03/18 02:56:18;;;;;;;14.13;8.57;;;;;;;;;;5054642;28;20021;-70
2021/03/18 02:58:45;;;;;;;18.35;8.85;;;;;;;;;;5054970;28;20096;-70
2021/03/18 03:01:11;;;;;;;14.48;8.70;;;;;;;;;;5054805;28;20032;-70
2021/03/18 03:03:38;;;;;;;18.52;9.20;;;;;;;;;;5054624;28;20028;-70
2021/03/18 03:06:06;;;;;;;19.80;11.57;;;;;;;;;;5055011;28;20024;-70
2021/03/18 03:08:33;;;;;;;18.55;10.32;;;;;;;;;;5054809;28;20547;-70
2021/03/18 03:11:01;;;;;;;19.08;9.70;;;;;;;;;;5054373;28;20465;-70
2021/03/18 03:13:28;;;;;;;19.13;9.70;;;;;;;;;;5054575;28;20441;-70
2021/03/18 03:15:56;;;;;;;14.57;8.25;;;;;;;;;;5054714;28;20385;-70
2021/03/18 03:18:22;;;;;;;18.17;8.85;;;;;;;;;;5054652;28;20105;-69
2021/03/18 03:20:51;;;;;;;18.25;9.95;;;;;;;;;;5053275;28;20021;-69
2021/03/18 03:23:20;;;;;;;14.23;7.95;;;;;;;;;;5054304;28;20128;-70
2021/03/18 03:25:47;;;;;;;14.32;8.05;;;;;;;;;;5054780;28;20021;-70
2021/03/18 03:28:13;;;;;;;16.63;9.43;;;;;;;;;;5054423;28;20021;-70
2021/03/18 03:30:40;;;;;;;24.90;10.95;;;;;;;;;;5054126;28;20027;-70
2021/03/18 03:33:07;;;;;;;16.73;10.32;;;;;;;;;;5054169;28;20076;-70
2021/03/18 03:35:34;;;;;;;15.20;8.68;;;;;;;;;;5054273;28;20021;-70
2021/03/18 03:38:00;;;;;;;14.27;8.55;;;;;;;;;;5053875;28;20029;-70
2021/03/18 03:40:26;;;;;;;14.85;8.65;;;;;;;;;;5054179;28;20096;-70
2021/03/18 03:42:53;;;;;;;22.02;10.00;;;;;;;;;;5054245;28;20500;-70
2021/03/18 03:45:19;;;;;;;18.27;10.77;;;;;;;;;;5053930;28;20428;-70
2021/03/18 03:47:46;;;;;;;19.77;11.27;;;;;;;;;;5052866;28;20421;-70
2021/03/18 03:50:15;;;;;;;15.38;9.55;;;;;;;;;;5053993;28;20025;-70
2021/03/18 03:52:52;;;;;;;15.95;8.43;;;;;;;;;;5053466;28;20035;-70
2021/03/18 03:55:36;;;;;;;14.60;8.57;;;;;;;;;;5054021;28;20426;-70
2021/03/18 03:58:21;;;;;;;19.10;9.25;;;;;;;;;;5053858;28;20362;-70
2021/03/18 04:00:48;;;;;;;17.70;9.95;;;;;;;;;;5054103;28;20025;-70
2021/03/18 04:03:15;;;;;;;17.20;10.13;;;;;;;;;;5052528;28;20089;-69
2021/03/18 04:05:43;;;;;;;17.70;10.13;;;;;;;;;;5053675;28;20028;-70
2021/03/18 04:08:12;;;;;;;21.65;10.60;;;;;;;;;;5053797;28;20021;-70
2021/03/18 04:10:40;;;;;;;22.40;10.27;;;;;;;;;;5052368;28;20028;-70
2021/03/18 04:13:06;;;;;;;18.50;9.57;;;;;;;;;;5053208;28;20033;-70
2021/03/18 04:15:34;;;;;;;15.48;8.02;;;;;;;;;;5053574;28;20079;-70
2021/03/18 04:18:02;;;;;;;12.82;7.07;;;;;;;;;;5053450;28;20021;-70
2021/03/18 04:20:29;;;;;;;16.27;8.35;;;;;;;;;;5053087;28;20017;-70
2021/03/18 04:22:56;;;;;;;16.52;8.98;;;;;;;;;;5053473;28;20028;-70
2021/03/18 04:25:24;;;;;;;15.13;7.88;;;;;;;;;;5052307;28;20078;-69
2021/03/18 04:27:51;;;;;;;16.42;8.55;;;;;;;;;;5053034;28;20029;-70
2021/03/18 04:30:18;;;;;;;18.88;9.73;;;;;;;;;;5053182;28;20434;-70
2021/03/18 04:32:46;;;;;;;18.80;9.30;;;;;;;;;;5051676;28;20052;-70
2021/03/18 04:35:12;;;;;;;14.30;7.43;;;;;;;;;;5052753;28;20024;-71
2021/03/18 04:37:38;;;;;;;16.45;8.95;;;;;;;;;;5053016;28;20074;-70
2021/03/18 04:40:06;;;;;;;15.20;8.18;;;;;;;;;;5053154;28;20043;-70
2021/03/18 04:42:33;;;;;;;23.02;11.23;;;;;;;;;;5052622;28;20031;-70
2021/03/18 04:45:00;;;;;;;21.77;10.45;;;;;;;;;;5051866;28;20434;-71
2021/03/18 04:47:27;;;;;;;17.52;9.77;;;;;;;;;;5052744;28;20465;-70
2021/03/18 04:49:53;;;;;;;16.42;9.38;;;;;;;;;;5052864;28;20021;-70
2021/03/18 04:52:20;;;;;;;15.10;8.88;;;;;;;;;;5052827;28;20037;-70
2021/03/18 04:54:47;;;;;;;15.43;8.40;;;;;;;;;;5052520;28;20515;-70
2021/03/18 04:57:15;;;;;;;13.50;6.30;;;;;;;;;;5052815;28;20037;-70
2021/03/18 04:59:43;;;;;;;13.93;8.15;;;;;;;;;;5052998;28;20028;-70
2021/03/18 05:02:09;;;;;;;24.40;14.07;;;;;;;;;;5051869;28;20021;-70
2021/03/18 05:04:37;;;;;;;22.75;11.40;;;;;;;;;;5052715;28;20025;-70
2021/03/18 05:07:03;;;;;;;21.33;10.82;;;;;;;;;;5052860;28;20029;-71
2021/03/18 05:09:30;;;;;;;19.55;11.30;;;;;;;;;;5052250;28;20017;-70
2021/03/18 05:11:57;;;;;;;23.73;12.95;;;;;;;;;;5052501;28;20035;-70
2021/03/18 05:14:23;;;;;;;21.10;11.43;;;;;;;;;;5052420;28;20028;-70
2021/03/18 05:16:50;;;;;;;25.17;13.98;;;;;;;;;;5052073;28;20024;-70
2021/03/18 05:19:17;;;;;;;27.27;16.65;;;;;;;;;;5052510;28;20032;-70
2021/03/18 05:21:44;;;;;;;21.67;13.73;;;;;;;;;;5052429;28;20025;-70
2021/03/18 05:24:11;;;;;;;19.20;11.80;;;;;;;;;;5052121;28;20477;-70
2021/03/18 05:26:37;;;;;;;19.75;12.15;;;;;;;;;;5052870;28;20032;-70
2021/03/18 05:29:04;;;;;;;22.52;12.77;;;;;;;;;;5052475;28;20049;-70
2021/03/18 05:31:30;;;;;;;26.33;15.70;;;;;;;;;;5051934;28;20079;-72
2021/03/18 05:33:56;;;;;;;26.45;14.85;;;;;;;;;;5052406;28;20036;-72
2021/03/18 05:36:23;;;;;;;25.13;15.23;;;;;;;;;;5052456;28;20028;-70
2021/03/18 05:38:49;;;;;;;32.30;16.85;;;;;;;;;;5051791;28;20033;-70
2021/03/18 05:41:15;;;;;;;37.08;17.40;;;;;;;;;;5052156;28;20029;-70
2021/03/18 05:43:42;;;;;;;27.83;15.80;;;;;;;;;;5051890;28;20108;-70
2021/03/18 05:46:08;;;;;;;33.28;17.05;;;;;;;;;;5052371;28;20029;-70
2021/03/18 05:48:35;;;;;;;24.05;14.57;;;;;;;;;;5050972;28;20474;-68
2021/03/18 05:51:02;;;;;;;26.08;15.20;;;;;;;;;;5051760;28;20128;-71
2021/03/18 05:53:29;;;;;;;22.05;13.18;;;;;;;;;;5052028;28;20064;-71
2021/03/18 05:55:56;;;;;;;25.67;12.23;;;;;;;;;;5052171;28;20477;-70
2021/03/18 05:58:23;;;;;;;23.75;14.25;;;;;;;;;;5051705;28;20025;-70
2021/03/18 06:00:50;;;;;;;30.05;14.68;;;;;;;;;;5050713;28;20029;-70
2021/03/18 06:03:17;;;;;;;20.70;11.32;;;;;;;;;;5052054;28;20032;-70
2021/03/18 06:05:44;;;;;;;22.25;12.02;;;;;;;;;;5051819;28;20100;-71
2021/03/18 06:08:10;;;;;;;26.85;14.38;;;;;;;;;;5052069;28;20055;-71
2021/03/18 06:10:36;;;;;;;19.60;11.38;;;;;;;;;;5051914;28;20025;-70
2021/03/18 06:13:02;;;;;;;20.20;9.38;;;;;;;;;;5051446;28;20037;-70
2021/03/18 06:15:29;;;;;;;16.35;9.55;;;;;;;;;;5054373;28;20358;-70
2021/03/18 06:17:55;;;;;;;19.10;11.68;;;;;;;;;;5051311;28;20033;-72
2021/03/18 06:20:23;;;;;;;42.13;18.95;;;;;;;;;;5053570;28;20032;-78
2021/03/18 06:22:50;;;;;;;17.30;10.90;;;;;;;;;;5047461;28;20772;-75
2021/03/18 06:25:24;;;;;;;19.35;11.25;;;;;;;;;;5047726;28;20053;-74
2021/03/18 06:28:09;;;;;;;19.30;12.15;;;;;;;;;;5053451;28;20058;-73
2021/03/18 06:30:36;;;;;;;20.98;13.13;;;;;;;;;;5054745;28;20502;-71
2021/03/18 06:33:22;;;;;;;20.27;9.88;;;;;;;;;;5053870;28;20122;-71
2021/03/18 06:35:49;;;;;;;17.67;10.40;;;;;;;;;;5054598;28;20028;-71
2021/03/18 06:38:15;;;;;;;23.85;12.82;;;;;;;;;;5053486;28;20045;-70
2021/03/18 06:40:45;;;;;;;24.98;12.30;;;;;;;;;;5052983;28;20021;-71
2021/03/18 06:43:11;;;;;;;16.92;10.18;;;;;;;;;;5054489;28;20025;-71
2021/03/18 06:45:39;;;;;;;21.02;12.48;;;;;;;;;;5054328;28;20025;-70
2021/03/18 06:48:06;;;;;;;22.77;11.95;;;;;;;;;;5054162;28;20130;-71
2021/03/18 06:50:35;;;;;;;31.77;17.58;;;;;;;;;;5053415;28;20059;-72
2021/03/18 06:53:01;;;;;;;21.30;12.95;;;;;;;;;;5052679;28;20032;-70
2021/03/18 06:55:29;;;;;;;21.88;12.70;;;;;;;;;;5052474;28;20037;-68
2021/03/18 06:58:18;;;;;;;18.27;9.70;;;;;;;;;;5053543;28;20100;-66
2021/03/18 07:00:46;;;;;;;18.50;9.55;;;;;;;;;;5045253;28;20037;-67
2021/03/18 07:03:23;;;;;;;26.30;13.75;;;;;;;;;;5052236;28;20025;-68
2021/03/18 07:05:49;;;;;;;25.98;14.88;;;;;;;;;;5049774;28;20086;-68
2021/03/18 07:08:28;;;;;;;23.73;13.43;;;;;;;;;;5047411;28;20029;-70
2021/03/18 07:10:54;;;;;;;20.92;11.40;;;;;;;;;;5053205;28;20029;-69
2021/03/18 07:13:22;;;;;;;25.42;13.65;;;;;;;;;;5051720;28;20481;-69
2021/03/18 07:15:49;;;;;;;24.77;12.43;;;;;;;;;;5052835;28;20029;-67
2021/03/18 07:18:15;;;;;;;21.25;12.30;;;;;;;;;;5052987;28;20029;-69
2021/03/18 07:21:00;;;;;;;18.85;11.45;;;;;;;;;;5051811;28;20032;-67
2021/03/18 07:23:37;;;;;;;20.08;11.65;;;;;;;;;;5053213;28;20024;-67
2021/03/18 07:26:17;;;;;;;18.33;11.73;;;;;;;;;;5053402;28;20070;-67
2021/03/18 07:28:45;;;;;;;19.30;11.63;;;;;;;;;;5053319;28;20028;-69
2021/03/18 07:31:11;;;;;;;13.60;8.18;;;;;;;;;;5052811;28;20029;-70
2021/03/18 07:33:38;;;;;;;15.23;8.18;;;;;;;;;;5053478;28;20063;-70
2021/03/18 07:36:05;;;;;;;24.20;11.48;;;;;;;;;;5051940;28;20017;-69
2021/03/18 07:38:31;;;;;;;25.55;13.38;;;;;;;;;;5053168;28;20031;-67
2021/03/18 07:40:58;;;;;;;19.20;11.30;;;;;;;;;;5052872;28;20029;-69
2021/03/18 07:43:25;;;;;;;18.92;12.43;;;;;;;;;;5052500;28;20048;-68
2021/03/18 07:45:53;;;;;;;12.18;8.13;;;;;;;;;;5052847;28;20017;-67
2021/03/18 07:48:22;;;;;;;17.42;9.75;;;;;;;;;;5051498;28;20400;-66
2021/03/18 07:50:50;;;;;;;15.45;7.07;;;;;;;;;;5051267;28;20025;-68
2021/03/18 07:53:18;;;;;;;12.95;6.72;;;;;;;;;;5051361;28;20021;-76
2021/03/18 07:55:44;;;;;;;12.63;7.32;;;;;;;;;;5049898;28;20087;-76
2021/03/18 07:58:10;;;;;;;12.93;6.75;;;;;;;;;;5050840;28;20029;-74
2021/03/18 08:00:40;;;;;;;11.15;6.10;;;;;;;;;;5050218;28;20025;-77
2021/03/18 08:03:30;;;;;;;12.65;7.65;;;;;;;;;;5050949;28;20032;-76
2021/03/18 08:05:56;;;;;;;12.05;7.63;;;;;;;;;;5043033;28;20045;-66
2021/03/18 08:08:32;;;;;;;11.35;6.13;;;;;;;;;;5045817;28;20031;-66
2021/03/18 08:11:07;;;;;;;13.48;8.13;;;;;;;;;;5047711;28;20025;-67
2021/03/18 08:13:34;;;;;;;12.27;7.47;;;;;;;;;;5050324;28;20059;-67
2021/03/18 08:16:00;;;;;;;15.32;8.98;;;;;;;;;;5052501;28;20096;-67
2021/03/18 08:18:26;;;;;;;17.45;8.98;;;;;;;;;;5052291;28;20025;-67
2021/03/18 08:20:52;;;;;;;14.18;8.32;;;;;;;;;;5051748;28;20029;-67
2021/03/18 08:23:24;;;;;;;15.90;8.40;;;;;;;;;;5052249;28;20053;-66
2021/03/18 08:25:55;;;;;;;17.00;8.55;;;;;;;;;;5051930;28;20028;-66
2021/03/18 08:28:37;;;;;;;16.30;8.05;;;;;;;;;;5052202;28;20504;-67
2021/03/18 08:31:04;;;;;;;14.07;6.67;;;;;;;;;;5032318;28;20428;-69
2021/03/18 08:33:32;;;;;;;13.68;8.10;;;;;;;;;;5031173;28;20486;-70
2021/03/18 08:36:27;;;;;;;18.83;9.73;;;;;;;;;;5029447;28;20466;-69
2021/03/18 08:39:06;;;;;;;16.10;9.80;;;;;;;;;;5025291;28;20065;-71
2021/03/18 08:41:39;;;;;;;16.67;10.05;;;;;;;;;;5030322;28;20034;-71
2021/03/18 08:44:17;;;;;;;16.30;9.73;;;;;;;;;;5030981;28;20075;-67
2021/03/18 08:46:57;;;;;;;15.80;9.40;;;;;;;;;;5030293;28;20363;-69
2021/03/18 08:49:25;;;;;;;18.42;11.15;;;;;;;;;;5030567;28;20031;-69
2021/03/18 08:51:55;;;;;;;19.38;10.25;;;;;;;;;;5032073;28;20075;-68
2021/03/18 08:54:37;;;;;;;18.42;9.75;;;;;;;;;;5031857;28;20112;-67
2021/03/18 08:57:06;;;;;;;15.02;8.60;;;;;;;;;;5030184;28;20064;-73
2021/03/18 08:59:32;;;;;;;13.57;8.35;;;;;;;;;;5037614;28;20024;-69
2021/03/18 09:02:06;;;;;;;15.73;8.88;;;;;;;;;;5049263;28;20025;-66
2021/03/18 09:04:51;;;;;;;15.70;9.90;;;;;;;;;;5050291;28;20569;-66
2021/03/18 09:07:25;;;;;;;16.90;8.98;;;;;;;;;;5049292;28;20056;-64
2021/03/18 09:10:11;;;;;;;16.65;8.40;;;;;;;;;;5049344;28;20116;-66
2021/03/18 09:12:40;;;;;;;20.95;11.30;;;;;;;;;;5049772;28;20041;-66
2021/03/18 09:15:14;;;;;;;21.88;10.80;;;;;;;;;;5049933;28;20024;-66
2021/03/18 09:17:41;;;;;;;15.57;7.90;;;;;;;;;;5049914;28;20067;-65
2021/03/18 09:20:07;;;;;;;21.38;9.65;;;;;;;;;;5050836;28;20377;-67
2021/03/18 09:22:33;;;;;;;13.75;8.13;;;;;;;;;;5051603;28;20061;-67
2021/03/18 09:25:01;;;;;;;16.52;9.07;;;;;;;;;;5051036;28;20036;-64
2021/03/18 09:27:34;;;;;;;13.73;9.00;;;;;;;;;;5050778;28;20036;-64
2021/03/18 09:30:00;;;;;;;;;;;;;;;;;;5051186;28;20055;-67
2021/03/18 09:32:30;;;;;;;14.82;7.20;;;;;;;;;;5049799;28;20026;-67
2021/03/18 09:34:57;;;;;;;15.63;8.40;;;;;;;;;;5050633;28;20033;-66
2021/03/18 09:37:24;;;;;;;11.02;5.35;;;;;;;;;;5050724;28;20021;-66
2021/03/18 09:39:50;;;;;;;12.43;7.72;;;;;;;;;;5048400;28;20077;-65
2021/03/18 09:42:17;;;;;;;10.68;6.03;;;;;;;;;;5048903;28;20029;-66
2021/03/18 09:44:43;;;;;;;11.32;6.40;;;;;;;;;;5049096;28;20499;-66
2021/03/18 09:47:10;;;;;;;9.95;5.40;;;;;;;;;;5048791;28;20029;-66
2021/03/18 09:49:40;;;;;;;11.85;6.45;;;;;;;;;;5053723;28;20013;-67
2021/03/18 09:52:16;;;;;;;12.93;6.22;;;;;;;;;;5052432;28;20037;-68
2021/03/18 09:54:43;;;;;;;9.38;5.75;;;;;;;;;;5052327;28;20036;-68
2021/03/18 10:00:30;;;;;;;9.63;5.38;;;;;;;;;;5107102;27;20442;-66
2021/03/18 10:02:56;;;;;;;10.48;5.95;;;;;;;;;;5107412;28;20502;-69
2021/03/18 10:05:22;;;;;;;11.20;5.78;;;;;;;;;;5108589;28;20019;-68
2021/03/18 10:07:54;;;;;;;9.15;4.95;;;;;;;;;;5106957;28;20022;-68
2021/03/18 10:10:21;;;;;;;9.90;5.03;;;;;;;;;;5108330;28;20047;-66
2021/03/18 10:12:49;;;;;;;10.05;5.10;;;;;;;;;;5106025;28;20509;-67
2021/03/18 10:15:17;;;;;;;18.48;5.28;;;;;;;;;;5107443;28;20020;-67
2021/03/18 10:17:44;;;;;;;8.02;5.32;;;;;;;;;;5106818;28;20027;-68
2021/03/18 10:20:15;;;;;;;7.95;4.45;;;;;;;;;;5108857;28;20035;-70
2021/03/18 10:22:43;;;;;;;10.20;5.50;;;;;;;;;;5109226;28;20020;-70
2021/03/18 10:27:16;;;;;;;10.98;5.85;;;;;;;;;;5109106;27;20361;-68
2021/03/18 10:29:43;;;;;;;11.95;5.68;;;;;;;;;;5109435;28;20363;-67
2021/03/18 10:32:14;;;;;;;9.38;4.63;;;;;;;;;;5109209;28;20020;-69
2021/03/18 10:34:40;;;;;;;10.02;5.80;;;;;;;;;;5108998;28;20030;-69
2021/03/18 10:44:12;;;;;;;10.25;5.75;;;;;;;;;;5109498;27;20104;-70
2021/03/18 10:46:40;;;;;;;12.30;7.03;;;;;;;;;;5101560;28;20225;-70
2021/03/18 10:49:07;;;;;;;9.52;6.00;;;;;;;;;;5081471;28;20021;-69
2021/03/18 10:51:44;;;;;;;13.13;9.20;;;;;;;;;;5089101;28;20020;-69
2021/03/18 10:55:54;;;;;;;11.13;5.10;;;;;;;;;;5088666;27;20479;-69
2021/03/18 10:58:24;;;;;;;9.75;5.63;;;;;;;;;;5087822;28;20024;-69
2021/03/18 11:00:58;;;;;;;10.23;5.45;;;;;;;;;;5088781;28;20020;-71
2021/03/18 11:04:07;;;;;;;8.68;4.72;;;;;;;;;;5101470;27;20383;-69
2021/03/18 11:06:34;;;;;;;6.68;3.72;;;;;;;;;;5068840;28;20028;-69
2021/03/18 11:09:01;;;;;;;9.80;4.82;;;;;;;;;;5068321;28;20408;-67
2021/03/18 11:11:29;;;;;;;12.65;5.78;;;;;;;;;;5067400;28;20048;-70
2021/03/18 11:14:06;;;;;;;9.77;5.30;;;;;;;;;;5068837;28;20029;-67
2021/03/18 11:16:32;;;;;;;10.02;4.80;;;;;;;;;;5066402;28;20116;-69
2021/03/18 11:19:03;;;;;;;7.22;4.10;;;;;;;;;;5068440;28;20074;-69
2021/03/18 11:21:32;;;;;;;7.90;4.32;;;;;;;;;;5067940;28;20693;-70
2021/03/18 11:24:04;;;;;;;9.68;5.85;;;;;;;;;;5066510;28;20437;-71
2021/03/18 11:26:30;;;;;;;10.97;5.97;;;;;;;;;;5067800;28;20066;-69
2021/03/18 11:31:36;;;;;;;12.30;5.95;;;;;;;;;;5109180;27;20744;-72
2021/03/18 11:34:16;;;;;;;13.27;7.20;;;;;;;;;;5109398;28;20379;-70
2021/03/18 11:36:44;;;;;;;10.90;5.75;;;;;;;;;;5107618;28;20373;-70
2021/03/18 11:39:12;;;;;;;11.77;6.72;;;;;;;;;;5109487;28;20051;-71
2021/03/18 11:41:39;;;;;;;9.90;5.03;;;;;;;;;;5108258;28;20483;-72
2021/03/18 11:44:06;;;;;;;9.13;5.18;;;;;;;;;;5107403;28;20089;-69
2021/03/18 11:46:32;;;;;;;7.88;4.53;;;;;;;;;;5109053;28;20071;-69
2021/03/18 11:48:58;;;;;;;10.65;5.72;;;;;;;;;;5109003;28;20012;-69
2021/03/18 11:51:25;;;;;;;6.88;3.55;;;;;;;;;;5107022;28;20043;-70
2021/03/18 11:53:51;;;;;;;10.25;6.57;;;;;;;;;;5108295;28;20095;-70
2021/03/18 11:56:18;;;;;;;11.02;6.90;;;;;;;;;;5108132;28;20020;-72
2021/03/18 11:58:44;;;;;;;12.25;6.57;;;;;;;;;;5107858;28;20047;-69
2021/03/18 12:01:11;;;;;;;9.10;6.20;;;;;;;;;;5107917;28;20066;-69
2021/03/18 12:03:37;;;;;;;16.73;8.48;;;;;;;;;;5108375;28;20016;-69
2021/03/18 12:06:04;;;;;;;15.75;7.88;;;;;;;;;;5107193;28;20024;-71
2021/03/18 12:09:56;;;;;;;12.88;8.18;;;;;;;;;;5109469;27;20407;-70
2021/03/18 12:12:22;;;;;;;14.65;8.93;;;;;;;;;;5109257;28;20031;-71
2021/03/18 12:16:48;;;;;;;13.55;6.93;;;;;;;;;;5069355;28;20415;-70
2021/03/18 12:19:57;;;;;;;11.57;6.40;;;;;;;;;;5110057;27;20320;-69
2021/03/18 12:22:23;;;;;;;12.60;7.30;;;;;;;;;;5109975;28;20035;-69
2021/03/18 12:24:49;;;;;;;9.73;6.20;;;;;;;;;;5108147;28;20742;-70
2021/03/18 12:27:15;;;;;;;9.15;5.55;;;;;;;;;;5109701;28;20027;-71
2021/03/18 12:29:41;;;;;;;10.10;6.65;;;;;;;;;;5109775;28;20479;-70
2021/03/18 12:32:08;;;;;;;10.65;4.85;;;;;;;;;;5109392;28;20024;-69
2021/03/18 12:34:34;;;;;;;9.30;5.35;;;;;;;;;;5109640;28;20024;-70
2021/03/18 12:38:22;;;;;;;12.55;7.97;;;;;;;;;;5068774;28;20384;-71
2021/03/18 12:42:19;;;;;;;8.50;5.25;;;;;;;;;;5069354;28;20379;-72
2021/03/18 12:44:45;;;;;;;9.75;5.65;;;;;;;;;;5068092;28;20039;-69
2021/03/18 12:47:11;;;;;;;6.55;3.78;;;;;;;;;;5069029;28;20043;-69
2021/03/18 12:50:43;;;;;;;10.20;6.75;;;;;;;;;;5110004;27;20389;-74
2021/03/18 12:53:10;;;;;;;13.45;7.65;;;;;;;;;;5107776;28;20032;-74
2021/03/18 12:55:37;;;;;;;15.57;8.30;;;;;;;;;;5106997;28;20036;-74
2021/03/18 12:58:04;;;;;;;16.05;8.40;;;;;;;;;;5107157;28;20020;-74
2021/03/18 13:00:33;;;;;;;9.80;6.55;;;;;;;;;;5108330;28;20267;-73
2021/03/18 13:03:00;;;;;;;12.20;7.20;;;;;;;;;;5107170;28;20026;-74
2021/03/18 13:05:27;;;;;;;15.80;9.20;;;;;;;;;;5108765;28;20026;-74
2021/03/18 13:09:13;;;;;;;11.63;8.07;;;;;;;;;;5109771;27;20335;-74
2021/03/18 13:13:09;;;;;;;18.80;11.40;;;;;;;;;;5130436;27;20305;-74
2021/03/18 13:15:35;;;;;;;11.95;6.80;;;;;;;;;;5109409;28;20108;-74
2021/03/18 13:18:01;;;;;;;20.58;12.45;;;;;;;;;;5091415;28;20545;-74
2021/03/18 13:20:28;;;;;;;18.33;10.35;;;;;;;;;;5108790;28;20028;-74
2021/03/18 13:22:54;;;;;;;15.35;9.30;;;;;;;;;;5109648;28;20030;-74
2021/03/18 13:25:22;;;;;;;20.00;11.77;;;;;;;;;;5109800;28;20095;-74
2021/03/18 13:27:48;;;;;;;14.65;8.25;;;;;;;;;;5091530;28;20478;-74
2021/03/18 13:31:37;;;;;;;20.98;12.60;;;;;;;;;;5110088;27;20744;-75
2021/03/18 13:34:03;;;;;;;19.42;12.10;;;;;;;;;;5109985;28;20465;-74
2021/03/18 13:36:29;;;;;;;23.25;14.52;;;;;;;;;;5109606;28;20020;-74
2021/03/18 13:38:55;;;;;;;25.63;15.02;;;;;;;;;;5110101;28;20024;-73
2021/03/18 13:43:16;;;;;;;12.77;8.60;;;;;;;;;;5109822;27;20377;-73
2021/03/18 13:45:43;;;;;;;14.98;9.88;;;;;;;;;;5110189;28;20024;-74
2021/03/18 13:48:11;;;;;;;21.40;14.18;;;;;;;;;;5110190;28;20077;-74
2021/03/18 13:51:15;;;;;;;18.85;10.85;;;;;;;;;;5109714;27;20385;-74
2021/03/18 13:53:42;;;;;;;23.65;12.07;;;;;;;;;;5109043;28;20051;-74
2021/03/18 13:58:15;;;;;;;30.00;12.57;;;;;;;;;;5109868;27;20450;-74
2021/03/18 14:03:30;;;;;;;12.65;7.20;;;;;;;;;;5110083;27;20946;-74
2021/03/18 14:06:09;;;;;;;16.20;8.48;;;;;;;;;;5110213;27;20377;-74
2021/03/18 14:08:36;;;;;;;12.82;7.18;;;;;;;;;;5110546;28;20537;-74
2021/03/18 14:11:02;;;;;;;10.40;5.85;;;;;;;;;;5109781;28;20027;-74
2021/03/18 14:13:29;;;;;;;18.42;7.88;;;;;;;;;;5108852;28;20024;-74
2021/03/18 14:15:55;;;;;;;16.23;9.18;;;;;;;;;;5110132;28;20095;-74
2021/03/18 14:18:43;;;;;;;18.20;9.93;;;;;;;;;;5109850;27;20434;-74
2021/03/18 14:21:09;;;;;;;23.23;14.50;;;;;;;;;;5110502;28;20369;-74
2021/03/18 14:23:35;;;;;;;24.38;12.07;;;;;;;;;;5110345;28;20012;-74
2021/03/18 14:29:29;;;;;;;33.60;16.85;;;;;;;;;;5110250;27;20410;-73
2021/03/18 14:32:08;;;;;;;25.25;15.25;;;;;;;;;;5109961;27;20741;-74
2021/03/18 14:34:34;;;;;;;19.80;13.23;;;;;;;;;;5110123;28;20032;-74
2021/03/18 14:37:01;;;;;;;25.10;14.40;;;;;;;;;;5110144;28;20023;-75
2021/03/18 14:39:27;;;;;;;32.55;19.15;;;;;;;;;;5108538;28;20028;-74
2021/03/18 14:41:53;;;;;;;25.33;16.13;;;;;;;;;;5110365;28;20027;-73
2021/03/18 14:44:19;;;;;;;24.60;13.43;;;;;;;;;;5110498;28;20027;-74
2021/03/18 14:46:46;;;;;;;35.38;18.15;;;;;;;;;;5109582;28;20074;-73
2021/03/18 14:49:46;;;;;;;37.08;23.80;;;;;;;;;;5110274;27;20380;-73
2021/03/18 14:52:12;;;;;;;21.13;13.35;;;;;;;;;;5108711;28;20487;-74
2021/03/18 14:54:38;;;;;;;24.70;14.27;;;;;;;;;;5109105;28;20075;-74
2021/03/18 14:57:17;;;;;;;19.33;11.38;;;;;;;;;;5069598;28;20379;-73
2021/03/18 14:59:43;;;;;;;18.52;8.57;;;;;;;;;;5067964;28;20029;-74
2021/03/18 15:02:09;;;;;;;14.98;9.50;;;;;;;;;;5068474;28;20033;-73
2021/03/18 15:04:36;;;;;;;15.48;9.25;;;;;;;;;;5069654;28;20362;-73
2021/03/18 15:07:02;;;;;;;15.30;10.20;;;;;;;;;;5067755;28;20025;-74
2021/03/18 15:09:28;;;;;;;22.85;13.32;;;;;;;;;;5068046;28;20021;-74
2021/03/18 15:11:54;;;;;;;18.35;10.13;;;;;;;;;;5067710;28;20025;-72
2021/03/18 15:14:20;;;;;;;21.27;11.95;;;;;;;;;;5069026;28;20069;-72
2021/03/18 15:16:46;;;;;;;14.32;9.55;;;;;;;;;;5069251;28;20033;-73